sensor_id;sensor_type;location;lat;lon;timestamp;P1;durP1;ratioP1;P2;durP2;ratioP2
9413;SDS011;4746;35.664;139.738;2023-02-15T00:00:07;1.50;;;1.50;;
9413;SDS011;4746;35.664;139.738;2023-02-15T00:02:36;1.77;;;1.67;;
9413;SDS011;4746;35.664;139.738;2023-02-15T00:05:04;1.60;;;1.23;;
9413;SDS011;4746;35.664;139.738;2023-02-15T00:07:33;1.53;;;1.43;;
9413;SDS011;4746;35.664;139.738;2023-02-15T00:10:01;1.50;;;1.40;;
9413;SDS011;4746;35.664;139.738;2023-02-15T00:12:29;2.00;;;1.60;;
9413;SDS011;4746;35.664;139.738;2023-02-15T00:14:57;1.63;;;1.53;;
9413;SDS011;4746;35.664;139.738;2023-02-15T00:17:26;1.57;;;1.47;;
9413;SDS011;4746;35.664;139.738;2023-02-15T00:19:55;1.77;;;1.67;;
9413;SDS011;4746;35.664;139.738;2023-02-15T00:22:22;1.60;;;1.50;;
9413;SDS011;4746;35.664;139.738;2023-02-15T00:24:50;1.90;;;1.73;;
9413;SDS011;4746;35.664;139.738;2023-02-15T00:27:18;2.63;;;1.80;;
9413;SDS011;4746;35.664;139.738;2023-02-15T00:29:46;1.60;;;1.50;;
9413;SDS011;4746;35.664;139.738;2023-02-15T00:32:14;1.53;;;1.47;;
9413;SDS011;4746;35.664;139.738;2023-02-15T00:34:41;1.47;;;1.40;;
9413;SDS011;4746;35.664;139.738;2023-02-15T00:37:09;2.63;;;1.90;;
9413;SDS011;4746;35.664;139.738;2023-02-15T00:39:36;1.70;;;1.60;;
9413;SDS011;4746;35.664;139.738;2023-02-15T00:42:04;1.63;;;1.53;;
9413;SDS011;4746;35.664;139.738;2023-02-15T00:44:31;2.20;;;2.00;;
9413;SDS011;4746;35.664;139.738;2023-02-15T00:46:59;2.20;;;2.00;;
9413;SDS011;4746;35.664;139.738;2023-02-15T00:49:27;1.63;;;1.53;;
9413;SDS011;4746;35.664;139.738;2023-02-15T00:51:54;2.00;;;1.80;;
9413;SDS011;4746;35.664;139.738;2023-02-15T00:54:22;2.30;;;2.20;;
9413;SDS011;4746;35.664;139.738;2023-02-15T00:56:49;2.20;;;1.77;;
9413;SDS011;4746;35.664;139.738;2023-02-15T00:59:17;1.90;;;1.80;;
9413;SDS011;4746;35.664;139.738;2023-02-15T01:01:44;2.30;;;2.10;;
9413;SDS011;4746;35.664;139.738;2023-02-15T01:04:12;2.13;;;1.97;;
9413;SDS011;4746;35.664;139.738;2023-02-15T01:06:39;2.30;;;2.10;;
9413;SDS011;4746;35.664;139.738;2023-02-15T01:09:07;2.20;;;2.10;;
9413;SDS011;4746;35.664;139.738;2023-02-15T01:11:34;3.07;;;2.30;;
9413;SDS011;4746;35.664;139.738;2023-02-15T01:14:02;1.90;;;1.80;;
9413;SDS011;4746;35.664;139.738;2023-02-15T01:16:30;1.53;;;1.43;;
9413;SDS011;4746;35.664;139.738;2023-02-15T01:18:58;1.90;;;1.80;;
9413;SDS011;4746;35.664;139.738;2023-02-15T01:21:28;1.60;;;1.50;;
9413;SDS011;4746;35.664;139.738;2023-02-15T01:23:55;1.67;;;1.57;;
9413;SDS011;4746;35.664;139.738;2023-02-15T01:26:24;1.90;;;1.80;;
9413;SDS011;4746;35.664;139.738;2023-02-15T01:28:52;1.83;;;1.70;;
9413;SDS011;4746;35.664;139.738;2023-02-15T01:31:20;1.50;;;1.40;;
9413;SDS011;4746;35.664;139.738;2023-02-15T01:33:48;1.80;;;1.70;;
9413;SDS011;4746;35.664;139.738;2023-02-15T01:36:15;1.70;;;1.60;;
9413;SDS011;4746;35.664;139.738;2023-02-15T01:38:43;1.93;;;1.73;;
9413;SDS011;4746;35.664;139.738;2023-02-15T01:41:13;2.57;;;2.10;;
9413;SDS011;4746;35.664;139.738;2023-02-15T01:43:52;2.20;;;1.80;;
9413;SDS011;4746;35.664;139.738;2023-02-15T01:46:31;2.40;;;2.20;;
9413;SDS011;4746;35.664;139.738;2023-02-15T01:49:13;1.80;;;1.70;;
9413;SDS011;4746;35.664;139.738;2023-02-15T01:51:45;2.17;;;1.97;;
9413;SDS011;4746;35.664;139.738;2023-02-15T01:54:21;1.50;;;1.40;;
9413;SDS011;4746;35.664;139.738;2023-02-15T01:57:03;1.73;;;1.63;;
9413;SDS011;4746;35.664;139.738;2023-02-15T01:59:37;1.80;;;1.70;;
9413;SDS011;4746;35.664;139.738;2023-02-15T02:02:09;1.60;;;1.50;;
9413;SDS011;4746;35.664;139.738;2023-02-15T02:04:48;1.90;;;1.80;;
9413;SDS011;4746;35.664;139.738;2023-02-15T02:07:21;1.20;;;1.20;;
9413;SDS011;4746;35.664;139.738;2023-02-15T02:09:53;1.83;;;1.73;;
9413;SDS011;4746;35.664;139.738;2023-02-15T02:12:21;1.63;;;1.53;;
9413;SDS011;4746;35.664;139.738;2023-02-15T02:14:50;1.83;;;1.70;;
9413;SDS011;4746;35.664;139.738;2023-02-15T02:23:30;2.27;;;1.80;;
9413;SDS011;4746;35.664;139.738;2023-02-15T02:35:43;1.80;;;1.70;;
9413;SDS011;4746;35.664;139.738;2023-02-15T02:38:32;1.90;;;1.80;;
9413;SDS011;4746;35.664;139.738;2023-02-15T02:41:32;2.40;;;2.20;;
9413;SDS011;4746;35.664;139.738;2023-02-15T02:44:49;2.13;;;1.93;;
9413;SDS011;4746;35.664;139.738;2023-02-15T02:47:50;1.90;;;1.80;;
9413;SDS011;4746;35.664;139.738;2023-02-15T02:50:27;2.33;;;1.90;;
9413;SDS011;4746;35.664;139.738;2023-02-15T02:52:57;1.70;;;1.60;;
9413;SDS011;4746;35.664;139.738;2023-02-15T02:55:35;1.93;;;1.83;;
9413;SDS011;4746;35.664;139.738;2023-02-15T02:58:42;4.53;;;1.97;;
9413;SDS011;4746;35.664;139.738;2023-02-15T03:04:15;1.60;;;1.50;;
9413;SDS011;4746;35.664;139.738;2023-02-15T03:06:51;1.53;;;1.43;;
9413;SDS011;4746;35.664;139.738;2023-02-15T03:09:39;1.67;;;1.63;;
9413;SDS011;4746;35.664;139.738;2023-02-15T03:12:28;2.53;;;2.33;;
9413;SDS011;4746;35.664;139.738;2023-02-15T03:15:01;2.03;;;1.93;;
9413;SDS011;4746;35.664;139.738;2023-02-15T03:18:26;1.67;;;1.60;;
9413;SDS011;4746;35.664;139.738;2023-02-15T03:21:01;1.80;;;1.70;;
9413;SDS011;4746;35.664;139.738;2023-02-15T03:23:33;2.13;;;2.03;;
9413;SDS011;4746;35.664;139.738;2023-02-15T03:26:05;2.03;;;1.90;;
9413;SDS011;4746;35.664;139.738;2023-02-15T03:28:38;1.77;;;1.67;;
9413;SDS011;4746;35.664;139.738;2023-02-15T03:31:11;1.70;;;1.60;;
9413;SDS011;4746;35.664;139.738;2023-02-15T03:33:45;2.40;;;2.20;;
9413;SDS011;4746;35.664;139.738;2023-02-15T03:39:30;2.30;;;2.20;;
9413;SDS011;4746;35.664;139.738;2023-02-15T03:44:49;2.07;;;1.90;;
9413;SDS011;4746;35.664;139.738;2023-02-15T03:47:36;1.80;;;1.70;;
9413;SDS011;4746;35.664;139.738;2023-02-15T03:50:13;1.70;;;1.60;;
9413;SDS011;4746;35.664;139.738;2023-02-15T03:53:15;2.10;;;1.93;;
9413;SDS011;4746;35.664;139.738;2023-02-15T03:55:53;2.23;;;2.00;;
9413;SDS011;4746;35.664;139.738;2023-02-15T03:58:22;1.90;;;1.80;;
9413;SDS011;4746;35.664;139.738;2023-02-15T04:01:13;1.60;;;1.50;;
9413;SDS011;4746;35.664;139.738;2023-02-15T04:04:15;2.60;;;1.70;;
9413;SDS011;4746;35.664;139.738;2023-02-15T04:06:48;1.70;;;1.60;;
9413;SDS011;4746;35.664;139.738;2023-02-15T04:09:15;2.53;;;2.03;;
9413;SDS011;4746;35.664;139.738;2023-02-15T04:12:01;1.83;;;1.60;;
9413;SDS011;4746;35.664;139.738;2023-02-15T04:14:29;2.10;;;1.50;;
9413;SDS011;4746;35.664;139.738;2023-02-15T04:17:14;1.70;;;1.60;;
9413;SDS011;4746;35.664;139.738;2023-02-15T04:19:42;1.80;;;1.47;;
9413;SDS011;4746;35.664;139.738;2023-02-15T04:22:28;1.93;;;1.53;;
9413;SDS011;4746;35.664;139.738;2023-02-15T04:25:13;1.73;;;1.37;;
9413;SDS011;4746;35.664;139.738;2023-02-15T04:27:42;1.70;;;1.60;;
9413;SDS011;4746;35.664;139.738;2023-02-15T04:30:14;1.90;;;1.80;;
9413;SDS011;4746;35.664;139.738;2023-02-15T04:32:46;2.57;;;1.60;;
9413;SDS011;4746;35.664;139.738;2023-02-15T04:35:14;2.33;;;1.80;;
9413;SDS011;4746;35.664;139.738;2023-02-15T04:37:42;1.97;;;1.57;;
9413;SDS011;4746;35.664;139.738;2023-02-15T04:40:11;1.60;;;1.50;;
9413;SDS011;4746;35.664;139.738;2023-02-15T04:42:40;1.60;;;1.50;;
9413;SDS011;4746;35.664;139.738;2023-02-15T04:45:08;1.73;;;1.63;;
9413;SDS011;4746;35.664;139.738;2023-02-15T04:47:36;1.67;;;1.50;;
9413;SDS011;4746;35.664;139.738;2023-02-15T04:50:03;1.30;;;1.20;;
9413;SDS011;4746;35.664;139.738;2023-02-15T04:52:32;1.50;;;1.40;;
9413;SDS011;4746;35.664;139.738;2023-02-15T04:54:59;2.23;;;1.00;;
9413;SDS011;4746;35.664;139.738;2023-02-15T04:57:27;1.50;;;1.40;;
9413;SDS011;4746;35.664;139.738;2023-02-15T04:59:54;1.30;;;1.13;;
9413;SDS011;4746;35.664;139.738;2023-02-15T05:02:24;1.70;;;1.57;;
9413;SDS011;4746;35.664;139.738;2023-02-15T05:04:51;2.47;;;1.33;;
9413;SDS011;4746;35.664;139.738;2023-02-15T05:07:19;2.73;;;1.60;;
9413;SDS011;4746;35.664;139.738;2023-02-15T05:09:47;1.47;;;1.37;;
9413;SDS011;4746;35.664;139.738;2023-02-15T05:12:15;1.50;;;1.40;;
9413;SDS011;4746;35.664;139.738;2023-02-15T05:14:42;2.00;;;1.10;;
9413;SDS011;4746;35.664;139.738;2023-02-15T05:17:10;1.30;;;1.13;;
9413;SDS011;4746;35.664;139.738;2023-02-15T05:19:37;1.80;;;1.20;;
9413;SDS011;4746;35.664;139.738;2023-02-15T05:22:05;3.37;;;1.60;;
9413;SDS011;4746;35.664;139.738;2023-02-15T05:24:32;2.90;;;1.10;;
9413;SDS011;4746;35.664;139.738;2023-02-15T05:27:19;1.57;;;1.10;;
9413;SDS011;4746;35.664;139.738;2023-02-15T05:30:05;1.40;;;1.30;;
9413;SDS011;4746;35.664;139.738;2023-02-15T05:32:39;0.97;;;0.90;;
9413;SDS011;4746;35.664;139.738;2023-02-15T05:35:07;2.10;;;1.00;;
9413;SDS011;4746;35.664;139.738;2023-02-15T05:37:40;1.47;;;1.03;;
9413;SDS011;4746;35.664;139.738;2023-02-15T05:40:08;1.17;;;1.10;;
9413;SDS011;4746;35.664;139.738;2023-02-15T05:42:38;2.07;;;1.10;;
9413;SDS011;4746;35.664;139.738;2023-02-15T05:45:06;1.17;;;1.07;;
9413;SDS011;4746;35.664;139.738;2023-02-15T05:47:34;1.00;;;0.90;;
9413;SDS011;4746;35.664;139.738;2023-02-15T05:50:01;1.23;;;0.80;;
9413;SDS011;4746;35.664;139.738;2023-02-15T05:52:29;0.87;;;0.87;;
9413;SDS011;4746;35.664;139.738;2023-02-15T05:54:56;1.23;;;1.13;;
9413;SDS011;4746;35.664;139.738;2023-02-15T05:57:26;1.03;;;0.87;;
9413;SDS011;4746;35.664;139.738;2023-02-15T05:59:53;0.90;;;0.90;;
9413;SDS011;4746;35.664;139.738;2023-02-15T06:02:21;0.77;;;0.77;;
9413;SDS011;4746;35.664;139.738;2023-02-15T06:04:48;1.47;;;0.70;;
9413;SDS011;4746;35.664;139.738;2023-02-15T06:07:16;0.90;;;0.90;;
9413;SDS011;4746;35.664;139.738;2023-02-15T06:09:43;0.80;;;0.80;;
9413;SDS011;4746;35.664;139.738;2023-02-15T06:12:11;0.63;;;0.63;;
9413;SDS011;4746;35.664;139.738;2023-02-15T06:14:38;1.00;;;0.80;;
9413;SDS011;4746;35.664;139.738;2023-02-15T06:17:06;0.70;;;0.70;;
9413;SDS011;4746;35.664;139.738;2023-02-15T06:19:33;0.90;;;0.80;;
9413;SDS011;4746;35.664;139.738;2023-02-15T06:22:01;1.00;;;0.90;;
9413;SDS011;4746;35.664;139.738;2023-02-15T06:24:28;1.07;;;0.83;;
9413;SDS011;4746;35.664;139.738;2023-02-15T06:26:56;0.80;;;0.80;;
9413;SDS011;4746;35.664;139.738;2023-02-15T06:29:23;1.40;;;0.73;;
9413;SDS011;4746;35.664;139.738;2023-02-15T06:31:51;0.90;;;0.90;;
9413;SDS011;4746;35.664;139.738;2023-02-15T06:34:18;0.87;;;0.87;;
9413;SDS011;4746;35.664;139.738;2023-02-15T06:36:46;2.00;;;1.00;;
9413;SDS011;4746;35.664;139.738;2023-02-15T06:39:13;0.70;;;0.70;;
9413;SDS011;4746;35.664;139.738;2023-02-15T06:41:41;0.60;;;0.60;;
9413;SDS011;4746;35.664;139.738;2023-02-15T06:44:09;1.57;;;1.00;;
9413;SDS011;4746;35.664;139.738;2023-02-15T06:46:36;1.07;;;0.80;;
9413;SDS011;4746;35.664;139.738;2023-02-15T06:49:04;1.47;;;0.80;;
9413;SDS011;4746;35.664;139.738;2023-02-15T06:51:31;1.70;;;0.90;;
9413;SDS011;4746;35.664;139.738;2023-02-15T06:53:59;1.90;;;0.83;;
9413;SDS011;4746;35.664;139.738;2023-02-15T06:56:27;1.40;;;0.70;;
9413;SDS011;4746;35.664;139.738;2023-02-15T06:58:55;0.40;;;0.40;;
9413;SDS011;4746;35.664;139.738;2023-02-15T07:01:23;0.90;;;0.70;;
9413;SDS011;4746;35.664;139.738;2023-02-15T07:03:50;0.97;;;0.70;;
9413;SDS011;4746;35.664;139.738;2023-02-15T07:06:18;0.50;;;0.50;;
9413;SDS011;4746;35.664;139.738;2023-02-15T07:08:45;0.57;;;0.57;;
9413;SDS011;4746;35.664;139.738;2023-02-15T07:11:13;1.33;;;1.23;;
9413;SDS011;4746;35.664;139.738;2023-02-15T07:13:58;0.80;;;0.80;;
9413;SDS011;4746;35.664;139.738;2023-02-15T07:16:26;0.73;;;0.73;;
9413;SDS011;4746;35.664;139.738;2023-02-15T07:18:53;1.00;;;0.83;;
9413;SDS011;4746;35.664;139.738;2023-02-15T07:21:21;0.73;;;0.67;;
9413;SDS011;4746;35.664;139.738;2023-02-15T07:23:48;0.63;;;0.47;;
9413;SDS011;4746;35.664;139.738;2023-02-15T07:26:16;1.43;;;0.70;;
9413;SDS011;4746;35.664;139.738;2023-02-15T07:28:43;0.70;;;0.70;;
9413;SDS011;4746;35.664;139.738;2023-02-15T07:31:11;1.40;;;0.50;;
9413;SDS011;4746;35.664;139.738;2023-02-15T07:33:38;2.60;;;0.87;;
9413;SDS011;4746;35.664;139.738;2023-02-15T07:36:06;0.90;;;0.70;;
9413;SDS011;4746;35.664;139.738;2023-02-15T07:38:38;0.70;;;0.70;;
9413;SDS011;4746;35.664;139.738;2023-02-15T07:41:07;2.83;;;0.70;;
9413;SDS011;4746;35.664;139.738;2023-02-15T07:43:41;0.50;;;0.50;;
9413;SDS011;4746;35.664;139.738;2023-02-15T07:46:11;0.63;;;0.60;;
9413;SDS011;4746;35.664;139.738;2023-02-15T07:48:42;1.60;;;0.63;;
9413;SDS011;4746;35.664;139.738;2023-02-15T07:51:11;1.07;;;0.60;;
9413;SDS011;4746;35.664;139.738;2023-02-15T07:53:41;0.87;;;0.70;;
9413;SDS011;4746;35.664;139.738;2023-02-15T07:56:10;0.80;;;0.80;;
9413;SDS011;4746;35.664;139.738;2023-02-15T07:58:39;0.60;;;0.60;;
9413;SDS011;4746;35.664;139.738;2023-02-15T08:01:17;0.63;;;0.63;;
9413;SDS011;4746;35.664;139.738;2023-02-15T08:03:49;0.93;;;0.93;;
9413;SDS011;4746;35.664;139.738;2023-02-15T08:06:19;1.10;;;0.70;;
9413;SDS011;4746;35.664;139.738;2023-02-15T08:08:48;1.10;;;1.00;;
9413;SDS011;4746;35.664;139.738;2023-02-15T08:11:17;1.63;;;0.80;;
9413;SDS011;4746;35.664;139.738;2023-02-15T08:14:04;1.37;;;0.87;;
9413;SDS011;4746;35.664;139.738;2023-02-15T08:16:45;3.13;;;1.00;;
9413;SDS011;4746;35.664;139.738;2023-02-15T08:19:16;0.80;;;0.70;;
9413;SDS011;4746;35.664;139.738;2023-02-15T08:21:53;2.40;;;1.10;;
9413;SDS011;4746;35.664;139.738;2023-02-15T08:24:28;0.90;;;0.87;;
9413;SDS011;4746;35.664;139.738;2023-02-15T08:27:05;1.10;;;1.00;;
9413;SDS011;4746;35.664;139.738;2023-02-15T08:29:35;1.13;;;0.90;;
9413;SDS011;4746;35.664;139.738;2023-02-15T08:32:06;1.00;;;1.00;;
9413;SDS011;4746;35.664;139.738;2023-02-15T08:34:40;3.37;;;1.20;;
9413;SDS011;4746;35.664;139.738;2023-02-15T08:37:09;1.13;;;1.13;;
9413;SDS011;4746;35.664;139.738;2023-02-15T08:39:36;1.00;;;1.00;;
9413;SDS011;4746;35.664;139.738;2023-02-15T08:42:05;0.93;;;0.93;;
9413;SDS011;4746;35.664;139.738;2023-02-15T08:44:32;1.00;;;1.00;;
9413;SDS011;4746;35.664;139.738;2023-02-15T08:47:00;1.40;;;1.30;;
9413;SDS011;4746;35.664;139.738;2023-02-15T08:49:29;3.73;;;1.47;;
9413;SDS011;4746;35.664;139.738;2023-02-15T08:51:56;1.00;;;1.00;;
9413;SDS011;4746;35.664;139.738;2023-02-15T08:54:25;1.40;;;1.30;;
9413;SDS011;4746;35.664;139.738;2023-02-15T08:56:52;1.10;;;1.10;;
9413;SDS011;4746;35.664;139.738;2023-02-15T08:59:21;1.20;;;1.20;;
9413;SDS011;4746;35.664;139.738;2023-02-15T09:01:51;1.07;;;1.00;;
9413;SDS011;4746;35.664;139.738;2023-02-15T09:04:20;2.63;;;1.33;;
9413;SDS011;4746;35.664;139.738;2023-02-15T09:06:49;1.40;;;1.30;;
9413;SDS011;4746;35.664;139.738;2023-02-15T09:09:17;1.07;;;1.07;;
9413;SDS011;4746;35.664;139.738;2023-02-15T09:11:48;1.20;;;1.10;;
9413;SDS011;4746;35.664;139.738;2023-02-15T09:14:18;1.00;;;1.00;;
9413;SDS011;4746;35.664;139.738;2023-02-15T09:16:48;1.20;;;1.20;;
9413;SDS011;4746;35.664;139.738;2023-02-15T09:19:19;1.20;;;1.10;;
9413;SDS011;4746;35.664;139.738;2023-02-15T09:21:50;1.00;;;1.00;;
9413;SDS011;4746;35.664;139.738;2023-02-15T09:24:18;1.07;;;1.00;;
9413;SDS011;4746;35.664;139.738;2023-02-15T09:26:48;1.43;;;1.00;;
9413;SDS011;4746;35.664;139.738;2023-02-15T09:29:16;1.27;;;1.13;;
9413;SDS011;4746;35.664;139.738;2023-02-15T09:31:47;1.03;;;0.97;;
9413;SDS011;4746;35.664;139.738;2023-02-15T09:34:17;0.97;;;0.97;;
9413;SDS011;4746;35.664;139.738;2023-02-15T09:36:47;1.30;;;1.23;;
9413;SDS011;4746;35.664;139.738;2023-02-15T09:39:20;1.27;;;1.10;;
9413;SDS011;4746;35.664;139.738;2023-02-15T09:42:00;1.00;;;1.00;;
9413;SDS011;4746;35.664;139.738;2023-02-15T09:53:59;1.40;;;1.40;;
9413;SDS011;4746;35.664;139.738;2023-02-15T09:57:20;2.97;;;1.60;;
9413;SDS011;4746;35.664;139.738;2023-02-15T10:00:07;1.83;;;1.73;;
9413;SDS011;4746;35.664;139.738;2023-02-15T10:21:45;1.60;;;1.50;;
9413;SDS011;4746;35.664;139.738;2023-02-15T10:26:58;1.67;;;1.57;;
9413;SDS011;4746;35.664;139.738;2023-02-15T10:29:39;1.27;;;1.23;;
9413;SDS011;4746;35.664;139.738;2023-02-15T10:32:45;1.70;;;1.60;;
9413;SDS011;4746;35.664;139.738;2023-02-15T10:38:33;2.10;;;2.00;;
9413;SDS011;4746;35.664;139.738;2023-02-15T10:47:06;2.23;;;2.03;;
9413;SDS011;4746;35.664;139.738;2023-02-15T10:52:50;2.07;;;1.90;;
9413;SDS011;4746;35.664;139.738;2023-02-15T11:01:27;1.50;;;1.40;;
9413;SDS011;4746;35.664;139.738;2023-02-15T11:08:20;2.00;;;1.90;;
9413;SDS011;4746;35.664;139.738;2023-02-15T11:10:54;1.93;;;1.83;;
9413;SDS011;4746;35.664;139.738;2023-02-15T11:13:34;1.90;;;1.80;;
9413;SDS011;4746;35.664;139.738;2023-02-15T11:18:55;1.53;;;1.43;;
9413;SDS011;4746;35.664;139.738;2023-02-15T11:21:34;3.17;;;1.40;;
9413;SDS011;4746;35.664;139.738;2023-02-15T11:24:18;1.73;;;1.63;;
9413;SDS011;4746;35.664;139.738;2023-02-15T11:27:05;2.57;;;2.17;;
9413;SDS011;4746;35.664;139.738;2023-02-15T11:30:14;2.53;;;2.33;;
9413;SDS011;4746;35.664;139.738;2023-02-15T11:32:52;4.33;;;3.97;;
9413;SDS011;4746;35.664;139.738;2023-02-15T11:43:21;3.70;;;3.40;;
9413;SDS011;4746;35.664;139.738;2023-02-15T11:46:11;3.97;;;3.63;;
9413;SDS011;4746;35.664;139.738;2023-02-15T11:48:40;1.67;;;1.57;;
9413;SDS011;4746;35.664;139.738;2023-02-15T11:51:09;2.80;;;2.60;;
9413;SDS011;4746;35.664;139.738;2023-02-15T11:53:42;1.80;;;1.70;;
9413;SDS011;4746;35.664;139.738;2023-02-15T11:56:15;2.00;;;1.90;;
9413;SDS011;4746;35.664;139.738;2023-02-15T11:58:56;1.70;;;1.60;;
9413;SDS011;4746;35.664;139.738;2023-02-15T12:01:45;1.87;;;1.77;;
9413;SDS011;4746;35.664;139.738;2023-02-15T12:15:42;1.40;;;1.30;;
9413;SDS011;4746;35.664;139.738;2023-02-15T12:18:36;1.47;;;1.47;;
9413;SDS011;4746;35.664;139.738;2023-02-15T12:21:13;1.93;;;1.83;;
9413;SDS011;4746;35.664;139.738;2023-02-15T12:24:17;1.40;;;1.40;;
9413;SDS011;4746;35.664;139.738;2023-02-15T12:32:36;1.37;;;1.37;;
9413;SDS011;4746;35.664;139.738;2023-02-15T12:35:41;1.63;;;1.40;;
9413;SDS011;4746;35.664;139.738;2023-02-15T12:40:42;1.80;;;1.63;;
9413;SDS011;4746;35.664;139.738;2023-02-15T12:44:05;7.37;;;2.27;;
9413;SDS011;4746;35.664;139.738;2023-02-15T12:47:02;1.63;;;1.53;;
9413;SDS011;4746;35.664;139.738;2023-02-15T12:49:43;3.60;;;1.30;;
9413;SDS011;4746;35.664;139.738;2023-02-15T12:52:44;1.30;;;1.20;;
9413;SDS011;4746;35.664;139.738;2023-02-15T12:55:21;1.50;;;1.40;;
9413;SDS011;4746;35.664;139.738;2023-02-15T13:00:41;1.50;;;1.50;;
9413;SDS011;4746;35.664;139.738;2023-02-15T13:03:20;1.90;;;1.80;;
9413;SDS011;4746;35.664;139.738;2023-02-15T13:05:53;2.07;;;1.70;;
9413;SDS011;4746;35.664;139.738;2023-02-15T13:11:12;1.50;;;1.40;;
9413;SDS011;4746;35.664;139.738;2023-02-15T13:14:18;1.40;;;1.30;;
9413;SDS011;4746;35.664;139.738;2023-02-15T13:16:55;1.70;;;1.60;;
9413;SDS011;4746;35.664;139.738;2023-02-15T13:19:35;1.57;;;1.47;;
9413;SDS011;4746;35.664;139.738;2023-02-15T13:22:57;1.47;;;1.37;;
9413;SDS011;4746;35.664;139.738;2023-02-15T13:25:23;1.70;;;1.33;;
9413;SDS011;4746;35.664;139.738;2023-02-15T13:28:03;2.00;;;1.90;;
9413;SDS011;4746;35.664;139.738;2023-02-15T13:30:37;1.93;;;1.80;;
9413;SDS011;4746;35.664;139.738;2023-02-15T13:35:57;1.47;;;1.37;;
9413;SDS011;4746;35.664;139.738;2023-02-15T13:38:40;1.60;;;1.50;;
9413;SDS011;4746;35.664;139.738;2023-02-15T13:41:23;1.97;;;1.73;;
9413;SDS011;4746;35.664;139.738;2023-02-15T13:47:55;2.17;;;2.07;;
9413;SDS011;4746;35.664;139.738;2023-02-15T13:50:32;5.47;;;3.90;;
9413;SDS011;4746;35.664;139.738;2023-02-15T13:53:14;2.07;;;1.90;;
9413;SDS011;4746;35.664;139.738;2023-02-15T14:05:39;1.50;;;1.40;;
9413;SDS011;4746;35.664;139.738;2023-02-15T14:08:33;3.53;;;2.00;;
9413;SDS011;4746;35.664;139.738;2023-02-15T14:11:29;1.77;;;1.67;;
9413;SDS011;4746;35.664;139.738;2023-02-15T14:20:22;1.50;;;1.40;;
9413;SDS011;4746;35.664;139.738;2023-02-15T14:23:17;1.60;;;1.50;;
9413;SDS011;4746;35.664;139.738;2023-02-15T14:32:03;1.43;;;1.43;;
9413;SDS011;4746;35.664;139.738;2023-02-15T14:49:53;1.50;;;1.40;;
9413;SDS011;4746;35.664;139.738;2023-02-15T14:52:21;1.63;;;1.50;;
9413;SDS011;4746;35.664;139.738;2023-02-15T14:59:50;3.30;;;1.80;;
9413;SDS011;4746;35.664;139.738;2023-02-15T15:05:26;2.33;;;2.23;;
9413;SDS011;4746;35.664;139.738;2023-02-15T15:08:21;2.30;;;2.10;;
9413;SDS011;4746;35.664;139.738;2023-02-15T15:13:59;1.70;;;1.60;;
9413;SDS011;4746;35.664;139.738;2023-02-15T15:19:11;2.13;;;2.03;;
9413;SDS011;4746;35.664;139.738;2023-02-15T15:22:17;1.90;;;1.80;;
9413;SDS011;4746;35.664;139.738;2023-02-15T15:24:51;1.70;;;1.60;;
9413;SDS011;4746;35.664;139.738;2023-02-15T15:44:53;1.97;;;1.80;;
9413;SDS011;4746;35.664;139.738;2023-02-15T15:48:22;1.70;;;1.60;;
9413;SDS011;4746;35.664;139.738;2023-02-15T15:51:14;2.53;;;1.90;;
9413;SDS011;4746;35.664;139.738;2023-02-15T15:53:50;2.40;;;2.20;;
9413;SDS011;4746;35.664;139.738;2023-02-15T15:56:21;1.80;;;1.70;;
9413;SDS011;4746;35.664;139.738;2023-02-15T15:59:04;2.17;;;1.93;;
9413;SDS011;4746;35.664;139.738;2023-02-15T16:01:41;2.20;;;2.10;;
9413;SDS011;4746;35.664;139.738;2023-02-15T16:04:11;2.30;;;2.20;;
9413;SDS011;4746;35.664;139.738;2023-02-15T16:06:50;2.00;;;1.90;;
9413;SDS011;4746;35.664;139.738;2023-02-15T16:09:20;2.37;;;2.17;;
9413;SDS011;4746;35.664;139.738;2023-02-15T16:11:55;2.13;;;1.93;;
9413;SDS011;4746;35.664;139.738;2023-02-15T16:14:31;2.40;;;2.20;;
9413;SDS011;4746;35.664;139.738;2023-02-15T16:17:04;2.30;;;2.20;;
9413;SDS011;4746;35.664;139.738;2023-02-15T16:20:00;2.10;;;1.90;;
9413;SDS011;4746;35.664;139.738;2023-02-15T16:22:54;2.00;;;1.90;;
9413;SDS011;4746;35.664;139.738;2023-02-15T16:28:39;2.17;;;2.07;;
9413;SDS011;4746;35.664;139.738;2023-02-15T16:31:17;2.60;;;2.13;;
9413;SDS011;4746;35.664;139.738;2023-02-15T16:33:47;2.33;;;2.13;;
9413;SDS011;4746;35.664;139.738;2023-02-15T16:36:23;2.10;;;2.00;;
9413;SDS011;4746;35.664;139.738;2023-02-15T16:41:32;2.17;;;2.07;;
9413;SDS011;4746;35.664;139.738;2023-02-15T16:44:05;2.40;;;2.30;;
9413;SDS011;4746;35.664;139.738;2023-02-15T16:46:43;2.30;;;1.97;;
9413;SDS011;4746;35.664;139.738;2023-02-15T16:49:18;2.30;;;2.20;;
9413;SDS011;4746;35.664;139.738;2023-02-15T16:52:01;1.57;;;1.57;;
9413;SDS011;4746;35.664;139.738;2023-02-15T16:54:33;1.90;;;1.80;;
9413;SDS011;4746;35.664;139.738;2023-02-15T16:57:02;1.97;;;1.87;;
9413;SDS011;4746;35.664;139.738;2023-02-15T16:59:34;2.13;;;2.03;;
9413;SDS011;4746;35.664;139.738;2023-02-15T17:02:15;1.67;;;1.57;;
9413;SDS011;4746;35.664;139.738;2023-02-15T17:05:33;1.80;;;1.63;;
9413;SDS011;4746;35.664;139.738;2023-02-15T17:07:50;1.70;;;1.60;;
9413;SDS011;4746;35.664;139.738;2023-02-15T17:10:46;1.93;;;1.83;;
9413;SDS011;4746;35.664;139.738;2023-02-15T17:16:40;2.53;;;1.70;;
9413;SDS011;4746;35.664;139.738;2023-02-15T17:19:24;2.30;;;2.10;;
9413;SDS011;4746;35.664;139.738;2023-02-15T17:22:01;1.77;;;1.67;;
9413;SDS011;4746;35.664;139.738;2023-02-15T17:27:14;1.63;;;1.53;;
9413;SDS011;4746;35.664;139.738;2023-02-15T17:29:52;2.00;;;1.90;;
9413;SDS011;4746;35.664;139.738;2023-02-15T17:32:30;1.70;;;1.60;;
9413;SDS011;4746;35.664;139.738;2023-02-15T17:37:49;1.60;;;1.50;;
9413;SDS011;4746;35.664;139.738;2023-02-15T17:40:30;1.80;;;1.70;;
9413;SDS011;4746;35.664;139.738;2023-02-15T17:43:00;1.67;;;1.57;;
9413;SDS011;4746;35.664;139.738;2023-02-15T17:45:49;1.80;;;1.70;;
9413;SDS011;4746;35.664;139.738;2023-02-15T17:51:00;1.80;;;1.70;;
9413;SDS011;4746;35.664;139.738;2023-02-15T17:53:31;1.53;;;1.37;;
9413;SDS011;4746;35.664;139.738;2023-02-15T17:55:58;1.90;;;1.63;;
9413;SDS011;4746;35.664;139.738;2023-02-15T17:58:34;1.90;;;1.73;;
9413;SDS011;4746;35.664;139.738;2023-02-15T18:01:09;1.93;;;1.80;;
9413;SDS011;4746;35.664;139.738;2023-02-15T18:04:04;1.97;;;1.87;;
9413;SDS011;4746;35.664;139.738;2023-02-15T18:06:59;1.90;;;1.80;;
9413;SDS011;4746;35.664;139.738;2023-02-15T18:09:44;1.43;;;1.37;;
9413;SDS011;4746;35.664;139.738;2023-02-15T18:12:31;2.63;;;1.93;;
9413;SDS011;4746;35.664;139.738;2023-02-15T18:15:03;1.73;;;1.63;;
9413;SDS011;4746;35.664;139.738;2023-02-15T18:17:34;1.40;;;1.40;;
9413;SDS011;4746;35.664;139.738;2023-02-15T18:20:17;1.70;;;1.60;;
9413;SDS011;4746;35.664;139.738;2023-02-15T18:22:48;1.90;;;1.80;;
9413;SDS011;4746;35.664;139.738;2023-02-15T18:25:19;3.00;;;2.00;;
9413;SDS011;4746;35.664;139.738;2023-02-15T18:27:51;2.27;;;2.07;;
9413;SDS011;4746;35.664;139.738;2023-02-15T18:30:20;1.90;;;1.80;;
9413;SDS011;4746;35.664;139.738;2023-02-15T18:32:53;2.57;;;2.37;;
9413;SDS011;4746;35.664;139.738;2023-02-15T18:35:24;2.07;;;1.97;;
9413;SDS011;4746;35.664;139.738;2023-02-15T18:37:57;1.57;;;1.50;;
9413;SDS011;4746;35.664;139.738;2023-02-15T18:40:26;2.07;;;1.97;;
9413;SDS011;4746;35.664;139.738;2023-02-15T18:42:55;1.90;;;1.60;;
9413;SDS011;4746;35.664;139.738;2023-02-15T18:45:24;1.60;;;1.50;;
9413;SDS011;4746;35.664;139.738;2023-02-15T18:47:57;1.60;;;1.50;;
9413;SDS011;4746;35.664;139.738;2023-02-15T18:50:26;1.80;;;1.70;;
9413;SDS011;4746;35.664;139.738;2023-02-15T18:52:58;2.83;;;1.80;;
9413;SDS011;4746;35.664;139.738;2023-02-15T18:55:28;2.40;;;2.00;;
9413;SDS011;4746;35.664;139.738;2023-02-15T18:58:00;1.53;;;1.43;;
9413;SDS011;4746;35.664;139.738;2023-02-15T19:00:29;1.77;;;1.67;;